Time,TemperatureF,DewpointF,PressureIn,WindDirection,WindDirectionDegrees,WindSpeedMPH,WindSpeedGustMPH,Humidity,HourlyPrecipIn,Conditions,Clouds,dailyrainin,SoftwareType,DateUTC
2013-08-06 00:01:00,65.0,38.0,-100.00,WSW,239,10.0,11.0,36,0.00,,,0.00,,2013-08-06 06:01:00,
2013-08-06 00:22:00,65.0,36.0,-100.00,WSW,254,11.0,13.0,35,0.00,,,0.00,,2013-08-06 06:22:00,
2013-08-06 00:32:00,65.0,36.0,-100.00,WSW,254,11.0,13.0,35,0.00,,,0.00,,2013-08-06 06:32:00,
2013-08-06 00:43:00,65.0,36.0,-100.00,WSW,254,11.0,13.0,35,0.00,,,0.00,,2013-08-06 06:43:00,
2013-08-06 01:01:00,70.0,33.0,-100.00,West,264,10.0,11.0,26,0.00,,,0.00,,2013-08-06 07:01:00,
2013-08-06 01:11:00,70.0,33.0,-100.00,West,264,10.0,11.0,26,0.00,,,0.00,,2013-08-06 07:11:00,
2013-08-06 01:22:00,70.0,33.0,-100.00,West,264,10.0,11.0,26,0.00,,,0.00,,2013-08-06 07:22:00,
2013-08-06 01:32:00,62.0,35.0,-100.00,WNW,295,10.0,10.0,37,0.00,,,0.00,,2013-08-06 07:32:00,
2013-08-06 01:53:00,62.0,35.0,-100.00,WNW,295,10.0,10.0,37,0.00,,,0.00,,2013-08-06 07:53:00,
2013-08-06 02:01:00,66.0,31.0,-100.00,West,278,12.0,13.0,27,0.00,,,0.00,,2013-08-06 08:01:00,
2013-08-06 02:11:00,66.0,31.0,-100.00,West,278,12.0,13.0,27,0.00,,,0.00,,2013-08-06 08:11:00,
2013-08-06 02:21:00,66.0,31.0,-100.00,West,278,12.0,13.0,27,0.00,,,0.00,,2013-08-06 08:21:00,
2013-08-06 02:43:00,63.0,32.0,-100.00,East,99,2.0,3.0,31,0.00,,,0.00,,2013-08-06 08:43:00,
2013-08-06 02:52:00,63.0,32.0,-100.00,East,99,2.0,3.0,31,0.00,,,0.00,,2013-08-06 08:52:00,
2013-08-06 03:01:00,61.0,38.0,-100.00,ESE,107,6.0,8.0,41,0.00,,,0.00,,2013-08-06 09:01:00,
2013-08-06 03:11:00,61.0,38.0,-100.00,ESE,107,6.0,8.0,41,0.00,,,0.00,,2013-08-06 09:11:00,
2013-08-06 03:22:00,61.0,38.0,-100.00,ESE,107,6.0,8.0,41,0.00,,,0.00,,2013-08-06 09:22:00,
2013-08-06 03:52:00,58.0,40.0,-100.00,SE,128,4.0,5.0,52,0.00,,,0.00,,2013-08-06 09:52:00,
2013-08-06 04:00:00,58.0,38.0,-100.00,NNW,330,4.0,5.0,47,0.00,,,0.00,,2013-08-06 10:00:00,
2013-08-06 04:01:00,61.0,42.0,-100.00,NE,38,3.0,5.0,49,0.00,,,0.00,,2013-08-06 10:01:00,
2013-08-06 04:11:00,61.0,42.0,-100.00,NE,38,3.0,5.0,49,0.00,,,0.00,,2013-08-06 10:11:00,
2013-08-06 04:22:00,61.0,42.0,-100.00,NE,38,3.0,5.0,49,0.00,,,0.00,,2013-08-06 10:22:00,
2013-08-06 04:32:00,58.0,38.0,-100.00,NNW,330,4.0,5.0,47,0.00,,,0.00,,2013-08-06 10:32:00,
2013-08-06 04:43:00,58.0,38.0,-100.00,NNW,330,4.0,5.0,47,0.00,,,0.00,,2013-08-06 10:43:00,
2013-08-06 04:53:00,58.0,38.0,-100.00,NNW,330,4.0,5.0,47,0.00,,,0.00,,2013-08-06 10:53:00,
2013-08-06 05:11:00,54.0,39.0,-100.00,NNW,329,5.0,6.0,57,0.00,,,0.00,,2013-08-06 11:11:00,
2013-08-06 05:21:00,54.0,39.0,-100.00,NNW,329,5.0,6.0,57,0.00,,,0.00,,2013-08-06 11:21:00,
2013-08-06 05:32:00,52.0,37.0,-100.00,NW,322,5.0,6.0,57,0.00,,,0.00,,2013-08-06 11:32:00,
2013-08-06 05:43:00,52.0,37.0,-100.00,NW,322,5.0,6.0,57,0.00,,,0.00,,2013-08-06 11:43:00,
2013-08-06 05:53:00,52.0,37.0,-100.00,NW,322,5.0,6.0,57,0.00,,,0.00,,2013-08-06 11:53:00,
2013-08-06 06:01:00,53.0,35.0,-100.00,NW,326,6.0,7.0,49,0.00,,,0.00,,2013-08-06 12:01:00,
2013-08-06 06:11:00,53.0,35.0,-100.00,NW,326,6.0,7.0,49,0.00,,,0.00,,2013-08-06 12:11:00,
2013-08-06 06:22:00,53.0,35.0,-100.00,NW,326,6.0,7.0,49,0.00,,,0.00,,2013-08-06 12:22:00,
2013-08-06 06:30:00,51.0,32.0,-100.00,NW,325,4.0,5.0,48,0.00,,,0.00,,2013-08-06 12:30:00,
2013-08-06 06:43:00,52.0,35.0,-100.00,NW,323,5.0,5.0,51,0.00,,,0.00,,2013-08-06 12:43:00,
2013-08-06 06:52:00,52.0,35.0,-100.00,NW,323,5.0,5.0,51,0.00,,,0.00,,2013-08-06 12:52:00,
2013-08-06 07:01:00,51.0,32.0,-100.00,NW,325,4.0,5.0,48,0.00,,,0.00,,2013-08-06 13:01:00,
2013-08-06 07:11:00,51.0,32.0,-100.00,NW,325,4.0,5.0,48,0.00,,,0.00,,2013-08-06 13:11:00,
2013-08-06 07:22:00,51.0,32.0,-100.00,NW,325,4.0,5.0,48,0.00,,,0.00,,2013-08-06 13:22:00,
2013-08-06 07:53:00,52.0,36.0,-100.00,NW,323,4.0,5.0,54,0.00,,,0.00,,2013-08-06 13:53:00,
2013-08-06 08:01:00,52.0,36.0,-100.00,NW,323,4.0,5.0,54,0.00,,,0.00,,2013-08-06 14:01:00,
2013-08-06 08:22:00,59.0,36.0,-100.00,ENE,62,1.0,2.0,43,0.00,,,0.00,,2013-08-06 14:22:00,
2013-08-06 08:32:00,59.0,36.0,-100.00,ENE,62,1.0,2.0,43,0.00,,,0.00,,2013-08-06 14:32:00,
2013-08-06 08:53:00,63.0,41.0,-100.00,ESE,103,0.0,1.0,45,0.00,,,0.00,,2013-08-06 14:53:00,
2013-08-06 09:02:00,63.0,41.0,-100.00,ESE,103,0.0,1.0,45,0.00,,,0.00,,2013-08-06 15:02:00,
2013-08-06 09:22:00,68.0,42.0,-100.00,South,178,1.0,2.0,38,0.00,,,0.00,,2013-08-06 15:22:00,
2013-08-06 09:33:00,68.0,42.0,-100.00,South,178,1.0,2.0,38,0.00,,,0.00,,2013-08-06 15:33:00,
2013-08-06 09:44:00,71.0,40.0,-100.00,SW,233,2.0,2.0,32,0.00,,,0.00,,2013-08-06 15:44:00,
2013-08-06 09:52:00,71.0,40.0,-100.00,SW,233,2.0,2.0,32,0.00,,,0.00,,2013-08-06 15:52:00,
2013-08-06 10:01:00,71.0,40.0,-100.00,SW,233,2.0,2.0,32,0.00,,,0.00,,2013-08-06 16:01:00,
2013-08-06 10:11:00,71.0,40.0,-100.00,SW,233,2.0,2.0,32,0.00,,,0.00,,2013-08-06 16:11:00,
2013-08-06 10:22:00,75.0,39.0,-100.00,NE,54,5.0,8.0,27,0.00,,,0.00,,2013-08-06 16:22:00,
2013-08-06 10:32:00,75.0,39.0,-100.00,NE,54,5.0,8.0,27,0.00,,,0.00,,2013-08-06 16:32:00,
2013-08-06 10:42:00,77.0,39.0,-100.00,North,3,4.0,5.0,25,0.00,,,0.00,,2013-08-06 16:42:00,
2013-08-06 10:52:00,78.0,41.0,-100.00,NNE,21,4.0,7.0,27,0.00,,,0.00,,2013-08-06 16:52:00,
2013-08-06 11:02:00,78.0,41.0,-100.00,NNE,21,4.0,7.0,27,0.00,,,0.00,,2013-08-06 17:02:00,
2013-08-06 11:21:00,77.0,43.0,-100.00,South,184,4.0,7.0,30,0.00,,,0.00,,2013-08-06 17:21:00,
2013-08-06 11:32:00,77.0,43.0,-100.00,South,184,4.0,7.0,30,0.00,,,0.00,,2013-08-06 17:32:00,
2013-08-06 11:43:00,77.0,44.0,-100.00,South,174,4.0,7.0,30,0.00,,,0.00,,2013-08-06 17:43:00,
2013-08-06 11:52:00,78.0,45.0,-100.00,SSE,148,5.0,8.0,31,0.00,,,0.00,,2013-08-06 17:52:00,
2013-08-06 12:01:00,78.0,45.0,-100.00,SSE,148,5.0,8.0,31,0.00,,,0.00,,2013-08-06 18:01:00,
2013-08-06 12:22:00,78.0,42.0,-100.00,SSE,160,9.0,12.0,27,0.00,,,0.00,,2013-08-06 18:22:00,
2013-08-06 12:32:00,78.0,42.0,-100.00,SSE,160,9.0,12.0,27,0.00,,,0.00,,2013-08-06 18:32:00,
2013-08-06 12:52:00,81.0,42.0,-100.00,South,171,7.0,10.0,25,0.00,,,0.00,,2013-08-06 18:52:00,
2013-08-06 13:01:00,81.0,42.0,-100.00,South,171,7.0,10.0,25,0.00,,,0.00,,2013-08-06 19:01:00,
2013-08-06 13:21:00,83.0,40.0,-100.00,South,179,6.0,9.0,22,0.00,,,0.00,,2013-08-06 19:21:00,
2013-08-06 13:32:00,83.0,40.0,-100.00,South,179,6.0,9.0,22,0.00,,,0.00,,2013-08-06 19:32:00,
2013-08-06 13:52:00,83.0,42.0,-100.00,SSE,158,7.0,10.0,24,0.00,,,0.00,,2013-08-06 19:52:00,
2013-08-06 14:01:00,83.0,42.0,-100.00,SSE,158,7.0,10.0,24,0.00,,,0.00,,2013-08-06 20:01:00,
2013-08-06 14:11:00,83.0,42.0,-100.00,SSE,158,7.0,10.0,24,0.00,,,0.00,,2013-08-06 20:11:00,
2013-08-06 14:30:00,86.0,43.0,-100.00,South,172,13.0,17.0,22,0.00,,,0.00,,2013-08-06 20:30:00,
2013-08-06 14:44:00,86.0,42.0,-100.00,South,186,7.0,12.0,21,0.00,,,0.00,,2013-08-06 20:44:00,
2013-08-06 14:52:00,86.0,42.0,-100.00,South,186,7.0,12.0,21,0.00,,,0.00,,2013-08-06 20:52:00,
2013-08-06 15:01:00,86.0,43.0,-100.00,South,172,13.0,17.0,22,0.00,,,0.00,,2013-08-06 21:01:00,
2013-08-06 15:11:00,86.0,43.0,-100.00,South,172,13.0,17.0,22,0.00,,,0.00,,2013-08-06 21:11:00,
2013-08-06 15:22:00,86.0,43.0,-100.00,South,172,13.0,17.0,22,0.00,,,0.00,,2013-08-06 21:22:00,
2013-08-06 15:43:00,88.0,41.0,-100.00,South,181,12.0,17.0,19,0.00,,,0.00,,2013-08-06 21:43:00,
2013-08-06 15:52:00,88.0,41.0,-100.00,South,181,12.0,17.0,19,0.00,,,0.00,,2013-08-06 21:52:00,
2013-08-06 16:11:00,89.0,30.0,-100.00,WSW,239,15.0,18.0,12,0.00,,,0.00,,2013-08-06 22:11:00,
2013-08-06 16:21:00,89.0,30.0,-100.00,WSW,239,15.0,18.0,12,0.00,,,0.00,,2013-08-06 22:21:00,
2013-08-06 16:32:00,90.0,35.0,-100.00,West,261,10.0,13.0,14,0.00,,,0.00,,2013-08-06 22:32:00,
2013-08-06 16:43:00,89.0,36.0,-100.00,WSW,246,11.0,14.0,16,0.00,,,0.00,,2013-08-06 22:43:00,
2013-08-06 17:01:00,91.0,30.0,-100.00,West,261,15.0,20.0,12,0.00,,,0.00,,2013-08-06 23:01:00,
2013-08-06 17:22:00,90.0,31.0,-100.00,WNW,284,14.0,17.0,12,0.00,,,0.00,,2013-08-06 23:22:00,
2013-08-06 17:32:00,90.0,31.0,-100.00,WNW,284,14.0,17.0,12,0.00,,,0.00,,2013-08-06 23:32:00,
2013-08-06 17:43:00,90.0,35.0,-100.00,West,264,11.0,15.0,14,0.00,,,0.00,,2013-08-06 23:43:00,
2013-08-06 17:52:00,90.0,35.0,-100.00,West,264,11.0,15.0,14,0.00,,,0.00,,2013-08-06 23:52:00,
2013-08-06 18:01:00,90.0,35.0,-100.00,West,264,11.0,15.0,14,0.00,,,0.00,,2013-08-07 00:01:00,
2013-08-06 18:11:00,89.0,30.0,-100.00,WSW,241,15.0,19.0,12,0.00,,,0.00,,2013-08-07 00:11:00,
2013-08-06 18:21:00,89.0,30.0,-100.00,WSW,241,15.0,19.0,12,0.00,,,0.00,,2013-08-07 00:21:00,
2013-08-06 18:32:00,89.0,30.0,-100.00,WSW,241,15.0,19.0,12,0.00,,,0.00,,2013-08-07 00:32:00,
2013-08-06 18:43:00,88.0,33.0,-100.00,WSW,248,15.0,18.0,14,0.00,,,0.00,,2013-08-07 00:43:00,
2013-08-06 18:52:00,88.0,33.0,-100.00,WSW,248,15.0,18.0,14,0.00,,,0.00,,2013-08-07 00:52:00,
2013-08-06 19:01:00,88.0,33.0,-100.00,WSW,248,15.0,18.0,14,0.00,,,0.00,,2013-08-07 01:01:00,
2013-08-06 19:21:00,87.0,32.0,-100.00,WSW,241,9.0,12.0,14,0.00,,,0.00,,2013-08-07 01:21:00,
2013-08-06 19:32:00,87.0,32.0,-100.00,WSW,241,9.0,12.0,14,0.00,,,0.00,,2013-08-07 01:32:00,
2013-08-06 19:43:00,87.0,32.0,-100.00,SW,226,17.0,22.0,14,0.00,,,0.00,,2013-08-07 01:43:00,
2013-08-06 19:52:00,87.0,32.0,-100.00,SW,226,17.0,22.0,14,0.00,,,0.00,,2013-08-07 01:52:00,
2013-08-06 20:02:00,87.0,32.0,-100.00,SW,226,17.0,22.0,14,0.00,,,0.00,,2013-08-07 02:02:00,
2013-08-06 20:33:00,82.0,38.0,-100.00,SSW,213,9.0,11.0,20,0.00,,,0.00,,2013-08-07 02:33:00,